Time;durP1;ratioP1;P1;durP2;ratioP2;P2;SDS_P1;SDS_P2;PMS_P1;PMS_P2;Temp;Humidity;BMP_temperature;BMP_pressure;BME280_temperature;BME280_humidity;BME280_pressure;Samples;Min_cycle;Max_cycle;Signal;HPM_P1;HPM_P2
2024/04/21 00:01:19;;;;;;;;;;;;;;;15.19;61.45;100028.46;107068;1263;25620;-66
2024/04/21 00:03:46;;;;;;;;;;;;;;;15.20;61.28;100022.11;106842;1267;25334;-70
2024/04/21 00:06:14;;;;;;;;;;;;;;;15.21;61.33;100015.80;107080;1255;25586;-77
2024/04/21 00:08:40;;;;;;;;;;;;;;;15.21;60.95;100017.02;107143;1254;24470;-81
2024/04/21 00:11:07;;;;;;;;;;;;;;;15.19;60.89;100011.52;107083;1256;24265;-79
2024/04/21 00:13:34;;;;;;;;;;;;;;;15.16;60.87;100009.77;106862;1273;24235;-75
2024/04/21 00:16:01;;;;;;;;;;;;;;;15.14;60.84;100012.16;107200;1257;25609;-73
2024/04/21 00:18:29;;;;;;;;;;;;;;;15.11;60.70;100009.70;106437;1258;527371;-71
2024/04/21 00:20:56;;;;;;;;;;;;;;;15.10;60.87;100017.94;107091;1261;25356;-69
2024/04/21 00:23:22;;;;;;;;;;;;;;;15.09;60.93;100008.75;107131;1265;25474;-66
2024/04/21 00:25:59;;;;;;;;;;;;;;;14.85;61.71;100000.41;107103;1264;25398;-67
2024/04/21 00:28:28;;;;;;;;;;;;;;;14.75;62.14;100000.55;107073;1258;25433;-65
2024/04/21 00:30:54;;;;;;;;;;;;;;;14.72;62.26;100000.19;107110;1257;25315;-65
2024/04/21 00:33:21;;;;;;;;;;;;;;;14.72;62.40;99999.86;107089;1260;25330;-65
2024/04/21 00:35:48;;;;;;;;;;;;;;;14.69;62.27;100009.04;107011;1254;25312;-63
2024/04/21 00:38:16;;;;;;;;;;;;;;;14.64;62.24;100001.75;107087;1264;25401;-66
2024/04/21 00:40:42;;;;;;;;;;;;;;;14.62;62.33;100001.72;107162;1256;25318;-65
2024/04/21 00:43:10;;;;;;;;;;;;;;;14.60;62.46;100005.13;107002;1257;25328;-64
2024/04/21 00:45:41;;;;;;;;;;;;;;;14.59;62.43;100008.66;106901;1257;25343;-64
2024/04/21 00:48:08;;;;;;;;;;;;;;;14.58;62.33;100005.61;107171;1254;24201;-62
2024/04/21 00:50:36;;;;;;;;;;;;;;;14.57;62.44;100009.64;107062;1254;25505;-62
2024/04/21 00:53:03;;;;;;;;;;;;;;;14.56;62.30;100017.23;106895;1260;25343;-63
2024/04/21 00:55:30;;;;;;;;;;;;;;;14.54;62.31;100011.21;107126;1257;25465;-63
2024/04/21 00:57:57;;;;;;;;;;;;;;;14.50;62.10;100019.77;106924;1261;25352;-65
2024/04/21 01:00:24;;;;;;;;;;;;;;;14.49;62.51;100013.70;107007;1266;25402;-69
2024/04/21 01:02:51;;;;;;;;;;;;;;;14.48;62.50;100020.91;107168;1266;25343;-72
2024/04/21 01:05:17;;;;;;;;;;;;;;;14.48;62.48;100014.83;107224;1254;22564;-75
2024/04/21 01:07:44;;;;;;;;;;;;;;;14.47;62.63;100019.42;107203;1260;23468;-73
2024/04/21 01:10:11;;;;;;;;;;;;;;;14.45;62.55;100008.35;106864;1258;22622;-67
2024/04/21 01:12:41;;;;;;;;;;;;;;;14.41;62.42;100015.70;107144;1264;25315;-65
2024/04/21 01:15:09;;;;;;;;;;;;;;;14.37;62.63;100010.49;107107;1251;25401;-60
2024/04/21 01:17:39;;;;;;;;;;;;;;;14.34;62.48;100010.62;107186;1260;22641;-60
2024/04/21 01:20:06;;;;;;;;;;;;;;;14.29;62.46;99999.18;107109;1252;25335;-56
2024/04/21 01:22:33;;;;;;;;;;;;;;;14.25;62.52;100004.06;106731;1271;25465;-56
2024/04/21 01:25:00;;;;;;;;;;;;;;;14.21;62.63;100010.70;106965;1256;25356;-57
2024/04/21 01:27:27;;;;;;;;;;;;;;;14.21;62.86;100003.05;107144;1258;25401;-56
2024/04/21 01:29:54;;;;;;;;;;;;;;;14.20;62.75;100005.20;107202;1260;22631;-56
2024/04/21 01:32:21;;;;;;;;;;;;;;;14.18;62.94;99995.02;107153;1250;23850;-56
2024/04/21 01:34:48;;;;;;;;;;;;;;;14.16;62.93;99999.44;107140;1254;25402;-56
2024/04/21 01:37:15;;;;;;;;;;;;;;;14.14;62.87;99996.95;107156;1257;25359;-56
2024/04/21 01:39:43;;;;;;;;;;;;;;;14.13;62.83;99993.84;107173;1251;25475;-56
2024/04/21 01:42:10;;;;;;;;;;;;;;;14.12;63.00;99990.95;107089;1254;25344;-56
2024/04/21 01:44:36;;;;;;;;;;;;;;;14.12;63.24;99990.06;107020;1254;22514;-56
2024/04/21 01:47:03;;;;;;;;;;;;;;;14.12;62.99;99990.39;107121;1262;25252;-54
2024/04/21 01:49:30;;;;;;;;;;;;;;;14.09;62.82;99991.43;107218;1257;25343;-55
2024/04/21 01:51:57;;;;;;;;;;;;;;;14.05;62.98;99992.83;107129;1257;25401;-54
2024/04/21 01:54:24;;;;;;;;;;;;;;;14.03;63.00;99985.64;107095;1251;25478;-54
2024/04/21 01:56:51;;;;;;;;;;;;;;;14.00;62.85;99992.37;107180;1257;25373;-54
2024/04/21 01:59:18;;;;;;;;;;;;;;;13.96;62.62;99986.98;106826;1255;25389;-54
2024/04/21 02:01:45;;;;;;;;;;;;;;;13.93;62.69;99994.11;106852;1257;25401;-54
2024/04/21 02:04:12;;;;;;;;;;;;;;;13.91;62.96;99992.14;106925;1266;25321;-54
2024/04/21 02:06:40;;;;;;;;;;;;;;;13.92;62.96;99990.50;107116;1260;25462;-54
2024/04/21 02:09:06;;;;;;;;;;;;;;;13.92;62.80;99995.92;107136;1251;25375;-54
2024/04/21 02:11:33;;;;;;;;;;;;;;;13.89;62.81;99996.90;107045;1251;25384;-55
2024/04/21 02:14:00;;;;;;;;;;;;;;;13.88;62.87;99994.70;107023;1263;25334;-55
2024/04/21 02:16:27;;;;;;;;;;;;;;;13.87;62.84;99990.02;107194;1264;25340;-55
2024/04/21 02:18:54;;;;;;;;;;;;;;;13.87;62.84;99975.92;107250;1260;25462;-55
2024/04/21 02:21:21;;;;;;;;;;;;;;;13.86;62.95;99990.95;106849;1270;25315;-55
2024/04/21 02:23:48;;;;;;;;;;;;;;;13.86;62.85;99985.00;107109;1250;25382;-55
2024/04/21 02:26:15;;;;;;;;;;;;;;;13.87;62.85;99976.08;107102;1256;22604;-56
2024/04/21 02:28:42;;;;;;;;;;;;;;;13.87;62.82;99981.84;107120;1254;25353;-56
2024/04/21 02:31:09;;;;;;;;;;;;;;;13.88;63.15;99983.37;107040;1254;25474;-56
2024/04/21 02:33:36;;;;;;;;;;;;;;;13.90;62.98;99979.95;107104;1254;25436;-57
2024/04/21 02:36:03;;;;;;;;;;;;;;;13.88;62.56;99972.89;107010;1259;25417;-59
2024/04/21 02:38:30;;;;;;;;;;;;;;;13.86;62.40;99987.64;107222;1254;25325;-59
2024/04/21 02:40:58;;;;;;;;;;;;;;;13.87;62.54;99984.80;107193;1260;25352;-61
2024/04/21 02:43:24;;;;;;;;;;;;;;;13.87;62.46;99980.78;107131;1260;25521;-63
2024/04/21 02:45:51;;;;;;;;;;;;;;;13.86;62.26;99987.46;107187;1254;25353;-66
2024/04/21 02:48:18;;;;;;;;;;;;;;;13.87;62.36;99985.14;107115;1250;25359;-68
2024/04/21 02:50:46;;;;;;;;;;;;;;;13.90;62.29;99992.70;107134;1255;24376;-70
2024/04/21 02:53:12;;;;;;;;;;;;;;;13.90;62.20;99993.05;106953;1251;25315;-69
2024/04/21 02:55:43;;;;;;;;;;;;;;;13.88;61.90;100000.64;107093;1257;25475;-72
2024/04/21 02:58:10;;;;;;;;;;;;;;;13.85;61.76;99997.45;107187;1254;25315;-73
2024/04/21 03:00:39;;;;;;;;;;;;;;;13.82;61.56;99997.95;107088;1260;22534;-76
2024/04/21 03:03:06;;;;;;;;;;;;;;;13.76;61.47;99999.96;107193;1263;22648;-74
2024/04/21 03:05:33;;;;;;;;;;;;;;;13.73;61.42;100003.96;107278;1261;25402;-72
2024/04/21 03:08:00;;;;;;;;;;;;;;;13.70;61.45;99998.16;107122;1256;22531;-69
2024/04/21 03:10:27;;;;;;;;;;;;;;;13.67;61.33;100013.46;106825;1260;25350;-67
2024/04/21 03:12:54;;;;;;;;;;;;;;;13.63;61.20;100018.03;107156;1253;25321;-64
2024/04/21 03:15:21;;;;;;;;;;;;;;;13.60;61.27;100001.11;107223;1254;25353;-64
2024/04/21 03:17:49;;;;;;;;;;;;;;;13.57;60.97;100029.48;107080;1254;25474;-62
2024/04/21 03:20:16;;;;;;;;;;;;;;;13.54;60.91;100022.64;107155;1253;25312;-62
2024/04/21 03:22:43;;;;;;;;;;;;;;;13.52;60.93;100015.04;106948;1267;25405;-62
2024/04/21 03:25:10;;;;;;;;;;;;;;;13.50;60.80;100046.16;106854;1259;25334;-62
2024/04/21 03:27:37;;;;;;;;;;;;;;;13.49;60.84;100028.79;107140;1251;25401;-62
2024/04/21 03:30:04;;;;;;;;;;;;;;;13.49;60.80;100031.38;107116;1251;25423;-61
2024/04/21 03:32:31;;;;;;;;;;;;;;;13.48;60.66;100052.16;107004;1251;25353;-61
2024/04/21 03:34:58;;;;;;;;;;;;;;;13.51;60.71;100043.65;107119;1250;22747;-61
2024/04/21 03:37:25;;;;;;;;;;;;;;;13.54;60.55;100056.64;106799;1267;25465;-60
2024/04/21 03:39:52;;;;;;;;;;;;;;;13.51;60.36;100065.09;106807;1259;25539;-60
2024/04/21 03:42:19;;;;;;;;;;;;;;;13.54;60.42;100061.67;106955;1257;25474;-60
2024/04/21 03:44:46;;;;;;;;;;;;;;;13.53;60.11;100084.52;106829;1263;25417;-60
2024/04/21 03:47:13;;;;;;;;;;;;;;;13.51;60.14;100076.60;107129;1251;25325;-59
2024/04/21 03:49:40;;;;;;;;;;;;;;;13.53;60.05;100078.25;106879;1259;24205;-60
2024/04/21 03:52:07;;;;;;;;;;;;;;;13.52;59.92;100092.75;107194;1254;25335;-59
2024/04/21 03:54:34;;;;;;;;;;;;;;;13.54;60.00;100097.05;107166;1250;25376;-59
2024/04/21 03:57:04;;;;;;;;;;;;;;;13.57;59.85;100104.56;107191;1257;24215;-59
2024/04/21 03:59:32;;;;;;;;;;;;;;;13.57;59.75;100096.92;107059;1251;25331;-59
2024/04/21 04:01:59;;;;;;;;;;;;;;;13.59;59.74;100111.61;107175;1254;25334;-59
2024/04/21 04:04:26;;;;;;;;;;;;;;;13.62;59.68;100108.02;107308;1251;25331;-59
2024/04/21 04:06:53;;;;;;;;;;;;;;;13.65;59.63;100117.78;107117;1254;25330;-58
2024/04/21 04:09:20;;;;;;;;;;;;;;;13.68;59.55;100117.67;107112;1263;25831;-58
2024/04/21 04:11:47;;;;;;;;;;;;;;;13.70;59.57;100111.61;107088;1257;25325;-58
2024/04/21 04:14:14;;;;;;;;;;;;;;;13.74;59.40;100118.76;106922;1257;24187;-58
2024/04/21 04:16:40;;;;;;;;;;;;;;;13.76;59.33;100117.98;107126;1254;22530;-58
2024/04/21 04:19:08;;;;;;;;;;;;;;;13.78;59.13;100117.04;107189;1255;25325;-58
2024/04/21 04:21:35;;;;;;;;;;;;;;;13.80;58.92;100118.68;107144;1250;24341;-57
2024/04/21 04:24:02;;;;;;;;;;;;;;;13.81;58.80;100120.02;106781;1275;25318;-58
2024/04/21 04:26:29;;;;;;;;;;;;;;;13.81;58.66;100124.02;107099;1253;25401;-57
2024/04/21 04:28:56;;;;;;;;;;;;;;;13.83;58.56;100124.98;107156;1266;25327;-57
2024/04/21 04:31:23;;;;;;;;;;;;;;;13.83;58.43;100135.27;106856;1258;25327;-57
2024/04/21 04:33:51;;;;;;;;;;;;;;;13.83;58.36;100130.91;107183;1251;24030;-57
2024/04/21 04:36:18;;;;;;;;;;;;;;;13.85;58.20;100139.22;106949;1267;25398;-57
2024/04/21 04:38:45;;;;;;;;;;;;;;;13.87;58.06;100136.98;107140;1256;25324;-57
2024/04/21 04:41:12;;;;;;;;;;;;;;;13.89;58.10;100141.98;107098;1267;25316;-57
2024/04/21 04:43:39;;;;;;;;;;;;;;;13.93;57.98;100142.18;107176;1253;22508;-57
2024/04/21 04:46:08;;;;;;;;;;;;;;;13.94;57.79;100137.92;107100;1256;25353;-56
2024/04/21 04:48:37;;;;;;;;;;;;;;;13.72;58.16;100144.16;106889;1254;25337;-56
2024/04/21 04:51:04;;;;;;;;;;;;;;;13.64;58.27;100148.01;107165;1262;25375;-56
2024/04/21 04:53:31;;;;;;;;;;;;;;;13.58;58.27;100154.00;107165;1253;25347;-56
2024/04/21 04:55:58;;;;;;;;;;;;;;;13.54;58.42;100160.27;107118;1254;25334;-56
2024/04/21 04:58:25;;;;;;;;;;;;;;;13.55;58.53;100160.75;107213;1254;25786;-56
2024/04/21 05:00:52;;;;;;;;;;;;;;;13.57;58.34;100168.00;107025;1254;25373;-56
2024/04/21 05:03:19;;;;;;;;;;;;;;;13.56;58.33;100172.74;107094;1254;25501;-56
2024/04/21 05:05:46;;;;;;;;;;;;;;;13.56;58.19;100181.97;107152;1256;25347;-56
2024/04/21 05:08:13;;;;;;;;;;;;;;;13.56;58.07;100183.19;106901;1269;25349;-55
2024/04/21 05:10:40;;;;;;;;;;;;;;;13.55;57.91;100186.38;107143;1257;25529;-55
2024/04/21 05:13:07;;;;;;;;;;;;;;;13.55;57.83;100196.84;107155;1263;25353;-56
2024/04/21 05:15:34;;;;;;;;;;;;;;;13.48;57.85;100200.27;107146;1254;25378;-55
2024/04/21 05:18:01;;;;;;;;;;;;;;;13.46;58.06;100201.39;106874;1270;25340;-56
2024/04/21 05:20:29;;;;;;;;;;;;;;;13.56;57.95;100199.77;107147;1253;25334;-56
2024/04/21 05:22:55;;;;;;;;;;;;;;;13.62;57.92;100200.54;107185;1257;25315;-56
2024/04/21 05:25:22;;;;;;;;;;;;;;;13.66;57.74;100207.69;107130;1266;25336;-56
2024/04/21 05:27:49;;;;;;;;;;;;;;;13.69;57.71;100208.96;107168;1251;25535;-56
2024/04/21 05:30:16;;;;;;;;;;;;;;;13.70;57.53;100218.50;107066;1263;25343;-56
2024/04/21 05:32:43;;;;;;;;;;;;;;;13.71;57.34;100221.22;107020;1250;25427;-56
2024/04/21 05:35:13;;;;;;;;;;;;;;;13.70;57.29;100220.25;107113;1253;25353;-56
2024/04/21 05:37:40;;;;;;;;;;;;;;;13.70;57.33;100227.38;107109;1251;25356;-56
2024/04/21 05:40:08;;;;;;;;;;;;;;;13.70;57.34;100228.58;107121;1251;25343;-56
2024/04/21 05:42:35;;;;;;;;;;;;;;;13.69;57.29;100231.41;107088;1254;25474;-56
2024/04/21 05:45:03;;;;;;;;;;;;;;;13.69;57.36;100241.19;106884;1257;25327;-56
2024/04/21 05:47:30;;;;;;;;;;;;;;;13.70;57.34;100237.48;107071;1250;25392;-56
2024/04/21 05:49:57;;;;;;;;;;;;;;;13.70;57.37;100237.50;106977;1257;25343;-56
2024/04/21 05:52:24;;;;;;;;;;;;;;;13.70;57.37;100241.66;107143;1254;22527;-56
2024/04/21 05:54:51;;;;;;;;;;;;;;;13.70;57.42;100244.97;107070;1264;23849;-56
2024/04/21 05:57:18;;;;;;;;;;;;;;;13.70;57.31;100255.77;107085;1253;25386;-56
2024/04/21 05:59:45;;;;;;;;;;;;;;;13.70;57.22;100255.11;107086;1257;25375;-56
2024/04/21 06:02:12;;;;;;;;;;;;;;;13.68;57.04;100260.73;107087;1263;25420;-56
2024/04/21 06:04:39;;;;;;;;;;;;;;;13.65;57.11;100259.35;107196;1254;25353;-56
2024/04/21 06:07:06;;;;;;;;;;;;;;;13.61;57.13;100258.27;107134;1251;24206;-56
2024/04/21 06:09:36;;;;;;;;;;;;;;;13.61;57.14;100264.02;107108;1254;23538;-55
2024/04/21 06:12:04;;;;;;;;;;;;;;;13.62;57.15;100262.25;106756;1269;25469;-55
2024/04/21 06:14:31;;;;;;;;;;;;;;;13.63;57.07;100272.83;107122;1263;25475;-55
2024/04/21 06:16:58;;;;;;;;;;;;;;;13.64;56.85;100278.88;107155;1254;25443;-55
2024/04/21 06:19:25;;;;;;;;;;;;;;;13.66;56.66;100285.60;107152;1250;22629;-55
2024/04/21 06:21:52;;;;;;;;;;;;;;;13.66;56.59;100290.46;107156;1254;25474;-55
2024/04/21 06:24:19;;;;;;;;;;;;;;;13.66;56.70;100298.66;107205;1260;25343;-55
2024/04/21 06:26:46;;;;;;;;;;;;;;;13.68;56.56;100302.96;106804;1267;25392;-56
2024/04/21 06:29:16;;;;;;;;;;;;;;;13.67;56.34;100300.19;107028;1256;22603;-55
2024/04/21 06:31:43;;;;;;;;;;;;;;;13.66;56.27;100307.04;107263;1263;25353;-55
2024/04/21 06:34:10;;;;;;;;;;;;;;;13.66;56.30;100309.46;107129;1253;25352;-55
2024/04/21 06:36:37;;;;;;;;;;;;;;;13.70;56.32;100318.73;107110;1254;25533;-55
2024/04/21 06:39:04;;;;;;;;;;;;;;;13.72;56.14;100322.48;106789;1267;25334;-56
2024/04/21 06:41:31;;;;;;;;;;;;;;;13.74;56.05;100323.44;106878;1267;22547;-55
2024/04/21 06:43:58;;;;;;;;;;;;;;;13.75;55.90;100327.05;107165;1254;25334;-55
2024/04/21 06:46:25;;;;;;;;;;;;;;;13.74;55.99;100326.37;107075;1253;25337;-55
2024/04/21 06:48:52;;;;;;;;;;;;;;;13.78;56.03;100330.41;107151;1257;25328;-55
2024/04/21 06:51:19;;;;;;;;;;;;;;;13.83;56.22;100321.13;107104;1251;25334;-55
2024/04/21 06:53:46;;;;;;;;;;;;;;;13.89;56.28;100332.38;107092;1254;25405;-55
2024/04/21 06:56:13;;;;;;;;;;;;;;;13.95;56.15;100338.56;107151;1254;25399;-55
2024/04/21 06:58:40;;;;;;;;;;;;;;;14.02;56.07;100344.05;107106;1256;23199;-55
2024/04/21 07:01:06;;;;;;;;;;;;;;;14.09;56.03;100348.29;107103;1257;25481;-55
2024/04/21 07:03:34;;;;;;;;;;;;;;;14.16;55.71;100351.29;107125;1251;25334;-55
2024/04/21 07:06:01;;;;;;;;;;;;;;;14.23;55.69;100356.71;106919;1256;25471;-55
2024/04/21 07:08:28;;;;;;;;;;;;;;;14.33;55.42;100362.42;107106;1254;25391;-55
2024/04/21 07:10:55;;;;;;;;;;;;;;;14.40;55.39;100368.07;107144;1261;25340;-55
2024/04/21 07:13:27;;;;;;;;;;;;;;;14.49;55.44;100371.14;106503;1257;1002936;-55
2024/04/21 07:15:54;;;;;;;;;;;;;;;14.59;55.38;100371.90;106931;1256;22534;-55
2024/04/21 07:18:21;;;;;;;;;;;;;;;14.70;55.24;100375.98;106799;1259;24029;-55
2024/04/21 07:20:48;;;;;;;;;;;;;;;14.80;54.99;100388.83;107197;1262;25474;-55
2024/04/21 07:23:15;;;;;;;;;;;;;;;14.89;54.69;100382.98;106808;1267;25423;-55
2024/04/21 07:25:42;;;;;;;;;;;;;;;15.00;54.72;100386.30;106829;1267;25372;-55
2024/04/21 07:28:09;;;;;;;;;;;;;;;15.15;54.36;100390.15;106900;1274;25353;-55
2024/04/21 07:30:37;;;;;;;;;;;;;;;15.29;53.72;100395.47;107112;1263;25328;-55
2024/04/21 07:33:04;;;;;;;;;;;;;;;15.38;53.15;100402.73;107142;1254;25353;-55
2024/04/21 07:35:31;;;;;;;;;;;;;;;15.43;52.97;100406.67;107181;1254;24377;-55
2024/04/21 07:37:58;;;;;;;;;;;;;;;15.47;52.88;100417.19;107091;1263;25325;-55
2024/04/21 07:40:25;;;;;;;;;;;;;;;15.51;52.84;100427.13;107102;1263;25350;-55
2024/04/21 07:42:52;;;;;;;;;;;;;;;15.52;52.24;100431.42;107122;1266;25474;-55
2024/04/21 07:45:19;;;;;;;;;;;;;;;15.50;51.91;100436.59;107028;1269;25353;-55
2024/04/21 07:47:46;;;;;;;;;;;;;;;15.47;51.71;100440.77;107133;1266;24210;-55
2024/04/21 07:50:13;;;;;;;;;;;;;;;15.46;51.79;100440.46;107044;1267;25514;-55
2024/04/21 07:52:40;;;;;;;;;;;;;;;15.48;51.60;100444.39;106833;1259;25337;-55
2024/04/21 07:55:07;;;;;;;;;;;;;;;15.51;51.68;100446.54;106837;1267;25372;-55
2024/04/21 07:57:34;;;;;;;;;;;;;;;15.54;51.44;100442.89;107179;1266;25309;-55
2024/04/21 08:00:02;;;;;;;;;;;;;;;15.56;51.40;100450.83;107113;1266;25328;-55
2024/04/21 08:02:37;;;;;;;;;;;;;;;15.59;51.15;100459.59;107139;1251;22557;-55
2024/04/21 08:05:04;;;;;;;;;;;;;;;15.60;50.62;100466.88;106953;1266;25416;-55
2024/04/21 08:07:31;;;;;;;;;;;;;;;15.63;50.61;100473.05;104859;1266;1003665;-55
2024/04/21 08:09:58;;;;;;;;;;;;;;;15.63;50.29;100479.70;107106;1266;25340;-54
2024/04/21 08:12:25;;;;;;;;;;;;;;;15.64;50.39;100482.98;106877;1267;25375;-54
2024/04/21 08:14:52;;;;;;;;;;;;;;;15.67;50.07;100481.27;107131;1274;25328;-55
2024/04/21 08:17:19;;;;;;;;;;;;;;;15.71;49.92;100486.84;106808;1269;25340;-54
2024/04/21 08:19:46;;;;;;;;;;;;;;;15.74;49.78;100487.92;107156;1266;25446;-54
2024/04/21 08:22:13;;;;;;;;;;;;;;;15.77;50.21;100488.14;107161;1267;25340;-54
2024/04/21 08:24:40;;;;;;;;;;;;;;;15.81;50.20;100489.15;107070;1267;25531;-54
2024/04/21 08:27:07;;;;;;;;;;;;;;;15.85;49.93;100494.23;107160;1266;25364;-54
2024/04/21 08:29:35;;;;;;;;;;;;;;;15.85;50.08;100504.55;107081;1266;25353;-55
2024/04/21 08:32:01;;;;;;;;;;;;;;;15.84;50.00;100510.70;107164;1266;25324;-56
2024/04/21 08:34:29;;;;;;;;;;;;;;;15.87;50.29;100515.13;107125;1267;25353;-56
2024/04/21 08:36:56;;;;;;;;;;;;;;;15.95;50.36;100522.09;107132;1270;25465;-56
2024/04/21 08:39:23;;;;;;;;;;;;;;;16.03;49.73;100534.97;107084;1261;25346;-56
2024/04/21 08:41:51;;;;;;;;;;;;;;;16.09;49.49;100538.36;107046;1267;25436;-56
2024/04/21 08:44:18;;;;;;;;;;;;;;;16.15;49.22;100543.85;106851;1266;25394;-56
2024/04/21 08:46:45;;;;;;;;;;;;;;;16.18;48.86;100544.91;107080;1266;25480;-56
2024/04/21 08:49:12;;;;;;;;;;;;;;;16.22;48.95;100545.41;107141;1270;25340;-56
2024/04/21 08:51:39;;;;;;;;;;;;;;;16.25;48.78;100549.11;107051;1273;22559;-56
2024/04/21 08:54:06;;;;;;;;;;;;;;;16.27;49.05;100558.66;107090;1269;25788;-56
2024/04/21 08:56:33;;;;;;;;;;;;;;;16.26;49.19;100569.73;107112;1266;25369;-56
2024/04/21 08:59:00;;;;;;;;;;;;;;;16.22;48.88;100580.05;106824;1269;25466;-56
2024/04/21 09:01:28;;;;;;;;;;;;;;;16.12;48.24;100583.34;107125;1266;25353;-56
2024/04/21 09:03:56;;;;;;;;;;;;;;;16.07;48.29;100598.63;107258;1266;25475;-56
2024/04/21 09:06:24;;;;;;;;;;;;;;;16.03;48.19;100608.64;106835;1273;25389;-56
2024/04/21 09:08:51;;;;;;;;;;;;;;;15.97;48.24;100615.73;106881;1270;25382;-56
2024/04/21 09:11:18;;;;;;;;;;;;;;;15.90;48.50;100621.68;107119;1266;25407;-56
2024/04/21 09:13:46;;;;;;;;;;;;;;;15.85;48.47;100630.13;107249;1266;25777;-56
2024/04/21 09:16:12;;;;;;;;;;;;;;;15.80;48.46;100631.04;107088;1267;23850;-56
2024/04/21 09:18:40;;;;;;;;;;;;;;;15.80;49.01;100636.13;107152;1266;24179;-56
2024/04/21 09:21:07;;;;;;;;;;;;;;;15.81;49.36;100642.36;107050;1266;25328;-56
2024/04/21 09:23:34;;;;;;;;;;;;;;;15.85;49.44;100643.58;107228;1267;25379;-56
2024/04/21 09:26:02;;;;;;;;;;;;;;;15.89;49.55;100645.51;107136;1274;25346;-56
2024/04/21 09:28:29;;;;;;;;;;;;;;;15.93;49.13;100651.44;107083;1270;25532;-56
2024/04/21 09:30:56;;;;;;;;;;;;;;;15.93;49.04;100654.75;107181;1266;23182;-56
2024/04/21 09:33:25;;;;;;;;;;;;;;;15.94;48.97;100659.10;107133;1269;25337;-56
2024/04/21 09:35:56;;;;;;;;;;;;;;;15.95;49.09;100669.89;107112;1267;25372;-56
2024/04/21 09:38:23;;;;;;;;;;;;;;;15.97;48.98;100675.78;107111;1267;25346;-56
2024/04/21 09:40:53;;;;;;;;;;;;;;;15.95;48.57;100674.80;107009;1267;22815;-57
2024/04/21 09:43:21;;;;;;;;;;;;;;;15.91;48.77;100681.46;106854;1273;25401;-56
2024/04/21 09:45:49;;;;;;;;;;;;;;;15.92;48.44;100684.20;107160;1270;25325;-56
2024/04/21 09:48:17;;;;;;;;;;;;;;;15.92;48.29;100687.70;107146;1266;25529;-56
2024/04/21 09:50:44;;;;;;;;;;;;;;;15.92;48.60;100691.03;107091;1269;25378;-56
2024/04/21 09:53:11;;;;;;;;;;;;;;;15.88;48.95;100697.16;106919;1270;25325;-56
2024/04/21 09:55:40;;;;;;;;;;;;;;;15.93;48.79;100699.89;106836;1274;25459;-56
2024/04/21 09:58:07;;;;;;;;;;;;;;;15.99;48.62;100707.15;107138;1267;25387;-57
2024/04/21 10:00:34;;;;;;;;;;;;;;;16.06;48.68;100715.38;105671;1266;1003757;-56
2024/04/21 10:03:02;;;;;;;;;;;;;;;16.16;48.84;100709.70;107144;1274;25334;-56
2024/04/21 10:05:30;;;;;;;;;;;;;;;16.27;48.90;100717.61;107078;1266;22514;-56
2024/04/21 10:08:00;;;;;;;;;;;;;;;16.38;48.75;100729.05;107070;1267;25402;-56
2024/04/21 10:10:28;;;;;;;;;;;;;;;16.48;48.49;100733.46;107039;1270;25348;-56
2024/04/21 10:12:55;;;;;;;;;;;;;;;16.60;48.23;100731.88;107174;1266;25398;-56
2024/04/21 10:15:22;;;;;;;;;;;;;;;16.71;47.88;100744.13;107128;1266;22502;-56
2024/04/21 10:17:56;;;;;;;;;;;;;;;16.82;47.37;100742.53;107037;1267;25401;-56
2024/04/21 10:20:30;;;;;;;;;;;;;;;16.93;46.82;100750.59;107094;1267;25479;-57
2024/04/21 10:22:58;;;;;;;;;;;;;;;17.01;46.60;100757.39;107113;1267;23457;-56
2024/04/21 10:25:25;;;;;;;;;;;;;;;17.07;46.13;100760.59;107108;1266;22517;-56
2024/04/21 10:28:09;;;;;;;;;;;;;;;17.10;45.94;100759.91;106899;1267;22506;-56
2024/04/21 10:30:36;;;;;;;;;;;;;;;17.15;46.32;100766.01;107102;1267;24381;-56
2024/04/21 10:33:04;;;;;;;;;;;;;;;17.19;46.22;100769.67;107185;1274;25404;-56
2024/04/21 10:35:34;;;;;;;;;;;;;;;17.22;45.91;100774.05;106846;1269;25329;-56
2024/04/21 10:38:04;;;;;;;;;;;;;;;17.26;45.80;100785.12;107071;1266;25603;-56
2024/04/21 10:40:31;;;;;;;;;;;;;;;17.28;45.64;100791.47;106990;1274;25502;-56
2024/04/21 10:42:59;;;;;;;;;;;;;;;17.32;45.16;100788.84;107151;1270;25343;-56
2024/04/21 10:45:25;;;;;;;;;;;;;;;17.36;45.47;100785.98;107219;1270;25345;-56
2024/04/21 10:47:53;;;;;;;;;;;;;;;17.42;45.16;100792.87;107125;1266;25383;-56
2024/04/21 10:50:22;;;;;;;;;;;;;;;17.49;44.85;100793.96;107147;1266;24397;-56
2024/04/21 10:52:49;;;;;;;;;;;;;;;17.55;45.12;100799.43;107176;1270;25328;-56
2024/04/21 10:55:17;;;;;;;;;;;;;;;17.59;45.38;100795.05;107107;1267;25401;-56
2024/04/21 10:57:44;;;;;;;;;;;;;;;17.66;45.41;100809.42;107023;1267;25336;-57
2024/04/21 11:00:11;;;;;;;;;;;;;;;17.72;44.98;100812.45;107081;1273;22509;-56
2024/04/21 11:02:38;;;;;;;;;;;;;;;17.79;44.94;100817.71;107123;1263;24359;-56
2024/04/21 11:05:06;;;;;;;;;;;;;;;17.84;44.66;100823.05;107184;1272;25324;-56
2024/04/21 11:07:33;;;;;;;;;;;;;;;17.92;44.67;100834.95;107151;1266;25472;-56
2024/04/21 11:10:01;;;;;;;;;;;;;;;17.99;44.60;100830.93;107094;1273;25353;-56
2024/04/21 11:12:29;;;;;;;;;;;;;;;18.03;44.39;100832.11;107107;1270;25350;-56
2024/04/21 11:14:59;;;;;;;;;;;;;;;18.05;44.09;100836.39;107246;1267;25328;-56
2024/04/21 11:17:26;;;;;;;;;;;;;;;18.08;43.69;100842.06;106453;1266;1003018;-56
2024/04/21 11:19:53;;;;;;;;;;;;;;;18.09;43.31;100845.84;107089;1272;25475;-56
2024/04/21 11:22:21;;;;;;;;;;;;;;;18.05;43.75;100855.54;107153;1270;22501;-56
2024/04/21 11:24:48;;;;;;;;;;;;;;;17.94;44.25;100861.19;107095;1267;25401;-56
2024/04/21 11:27:16;;;;;;;;;;;;;;;18.00;44.09;100857.89;107115;1266;25315;-55
2024/04/21 11:29:45;;;;;;;;;;;;;;;18.00;44.05;100863.35;107160;1267;24237;-56
2024/04/21 11:32:12;;;;;;;;;;;;;;;17.99;43.92;100868.69;107192;1267;22510;-56
2024/04/21 11:34:41;;;;;;;;;;;;;;;17.93;43.95;100868.80;107036;1267;22732;-56
2024/04/21 11:37:14;;;;;;;;;;;;;;;17.88;44.17;100872.36;106797;1266;25474;-56
2024/04/21 11:39:41;;;;;;;;;;;;;;;17.88;44.45;100873.21;107094;1274;24676;-55
2024/04/21 11:42:09;;;;;;;;;;;;;;;17.94;44.87;100874.73;107154;1268;25353;-56
2024/04/21 11:44:36;;;;;;;;;;;;;;;18.00;44.72;100872.30;107179;1267;25474;-56
2024/04/21 11:47:03;;;;;;;;;;;;;;;18.09;44.51;100875.84;107123;1267;25325;-56
2024/04/21 11:49:30;;;;;;;;;;;;;;;18.13;44.14;100887.23;107177;1267;25343;-56
2024/04/21 11:51:58;;;;;;;;;;;;;;;18.15;43.73;100892.21;107118;1267;25337;-56
2024/04/21 11:54:24;;;;;;;;;;;;;;;18.16;43.79;100889.23;107096;1273;25328;-56
2024/04/21 11:56:51;;;;;;;;;;;;;;;18.17;44.12;100891.44;107104;1266;25326;-56
2024/04/21 11:59:18;;;;;;;;;;;;;;;18.21;44.20;100900.86;107126;1266;25360;-56
2024/04/21 12:01:46;;;;;;;;;;;;;;;18.25;44.07;100894.90;107282;1266;25440;-56
2024/04/21 12:04:19;;;;;;;;;;;;;;;18.27;43.49;100902.33;107108;1267;25318;-55
2024/04/21 12:06:46;;;;;;;;;;;;;;;18.27;43.20;100908.13;107087;1273;25340;-56
2024/04/21 12:09:14;;;;;;;;;;;;;;;18.28;43.35;100909.16;106912;1273;22795;-56
2024/04/21 12:11:41;;;;;;;;;;;;;;;18.26;43.02;100909.39;107111;1267;22622;-55
2024/04/21 12:14:14;;;;;;;;;;;;;;;18.27;43.23;100910.23;107123;1266;25466;-56
2024/04/21 12:16:41;;;;;;;;;;;;;;;18.29;42.95;100914.86;106894;1267;25321;-56
2024/04/21 12:19:08;;;;;;;;;;;;;;;18.34;42.96;100911.61;106794;1267;245280;-56
2024/04/21 12:21:35;;;;;;;;;;;;;;;18.42;43.16;100912.63;107084;1266;25305;-56
2024/04/21 12:24:02;;;;;;;;;;;;;;;18.51;42.93;100913.05;106903;1267;25389;-55
2024/04/21 12:26:30;;;;;;;;;;;;;;;18.60;42.49;100928.71;107086;1267;25471;-55
2024/04/21 12:28:57;;;;;;;;;;;;;;;18.67;41.73;100926.96;107106;1266;25343;-55